Raddle, Illinois
Current Conditions -  °F | °C
As of 1:52 PM on Thursday 23 Oct 2014 (Local Time) from KMDH Reporting Station
Clear Clear  
Wind Chill: 61°   Ceiling: Unl
Heat Index: 61°   Visibility: 10mi
Dew Point: 41°   Wind: 7mph
Humidity: 48%   Direction: 240°WSW
Pressure: 30.18"   Gusts: NA
Location:  37.7458°N, 89.5469°W
Report Text: KMDH 231852Z 24006KT 10SM CLR 16/05 A3018 RMK AO2 SLP220 T01610050
Loading
Personal Weather Stations






























Interactive Weather Map
Tropical Storm Tracking
New forecast layout! Learn more

10-Day Weather Forecast

Advertisements
Track Severe Weather on mobile